Meteo Giornale » Osservazioni meteo Italia » Dobbiaco

ore: 04:55 - Osservazioni Meteo Dobbiaco
Lat. 46° 44' N Lon. 12° 13' E Alt. 1222 metri s.l.m.

sereno Europe/Rome

14 °C

Sereno

Temp. 24 Ore

14 °C

26 °C

Nord

3.7 Km/h

Dew point 14 °C

Umidità 100 %

Visibilità  0 Km

Il sole sorge alle ore 05:36

Il sole tramonta alle ore 20:58

Data e Ora Cielo e Fenomeni T °C DP °C Um. % Pres. hPa Vis. km Vento km/h
Oggi h: 04:55 sereno Sereno 14 14 100 1020 0 N 3.7
Oggi h: 03:55 sereno Sereno 14 14 100 1021 0 N 1.8
Oggi h: 02:55 sereno Sereno 14 14 100 1022 0 N 1.8
Oggi h: 01:55 sereno Sereno 14 14 100 1022 0 N 3.7
Oggi h: 00:55 sereno Sereno 15 15 100 1024 0 N 5.5
Ieri h: 23:55 sereno Sereno 15 15 100 1024 0 N 5.5
Ieri h: 22:55 sereno Sereno 15 15 100 1025 0 N 3.7
Ieri h: 21:55 sereno Sereno 15 15 100 1024 0 N 1.8
Ieri h: 20:55 sereno Sereno 16 15 93 1024 0 N 1.8
Ieri h: 19:55 sereno Sereno 16 15 93 1025 0 NO 7.4
Ieri h: 18:55 sereno Sereno 18 14 77 1024 0 O/NO 22.2
Ieri h: 17:55 sereno Sereno 23 15 60 1021 0 N 3.7
Ieri h: 16:55 sereno Sereno 26 16 54 1021 0 E/SE 14.8
Ieri h: 14:55 sereno Sereno 26 15 50 1022 0 S/SE 7.4
Ieri h: 13:55 sereno Sereno 25 15 53 1022 0 E 9.3
Ieri h: 12:55 sereno Sereno 26 18 61 1023 0 E 14.8
Ieri h: 11:55 sereno Sereno 25 16 57 1024 0 E 14.8
Ieri h: 10:55 sereno Sereno 23 17 68 1025 0 E 14.8
Ieri h: 09:55 sereno Sereno 20 17 82 1025 0 E/SE 13
Ieri h: 08:55 sereno Sereno 19 16 82 1026 0 E 11.1
Ieri h: 07:55 sereno Sereno 18 16 88 1026 0 E/SE 11.1
Ieri h: 06:55 sereno Sereno 15 15 100 1026 0 S/SE 7.4
Ieri h: 05:55 sereno Sereno 17 16 93 1026 0 N 3.7